Time;durP1;ratioP1;P1;durP2;ratioP2;P2;SDS_P1;SDS_P2;PMS_P1;PMS_P2;Temp;Humidity;BMP_temperature;BMP_pressure;BME280_temperature;BME280_humidity;BME280_pressure;Samples;Min_cycle;Max_cycle;Signal;HPM_P1;HPM_P2
2022/04/06 00:00:06;;;;;;;;;1.00;1.00;;;;;13.85;53.28;100718.84;5060967;28;45400;-66
2022/04/06 00:02:32;;;;;;;;;3.25;2.00;;;;;13.83;53.17;100723.41;5061266;28;45342;-66
2022/04/06 00:04:57;;;;;;;;;3.50;1.50;;;;;13.81;53.14;100727.09;5047591;28;46059;-66
2022/04/06 00:07:23;;;;;;;;;1.75;1.75;;;;;13.77;52.82;100723.69;5044569;28;45366;-66
2022/04/06 00:09:48;;;;;;;;;2.50;1.00;;;;;13.71;52.62;100708.75;5060185;28;45619;-66
2022/04/06 00:12:13;;;;;;;;;0.50;0.50;;;;;13.70;52.80;100723.09;5059732;28;45572;-67
2022/04/06 00:14:39;;;;;;;;;1.00;1.00;;;;;13.65;52.36;100703.66;5059859;28;45298;-66
2022/04/06 00:17:05;;;;;;;;;1.50;1.00;;;;;13.69;53.08;100717.81;5059595;28;45357;-66
2022/04/06 00:19:34;;;;;;;;;2.25;1.00;;;;;13.67;52.45;100707.16;5059231;28;45318;-66
2022/04/06 00:22:01;;;;;;;;;1.00;1.00;;;;;13.66;52.47;100715.25;5056870;28;45238;-66
2022/04/06 00:24:27;;;;;;;;;0.50;0.50;;;;;13.63;52.31;100710.94;5046240;28;45346;-66
2022/04/06 00:26:53;;;;;;;;;0.50;0.25;;;;;13.57;52.08;100697.78;5054057;28;45680;-66
2022/04/06 00:29:18;;;;;;;;;2.75;1.00;;;;;13.60;52.07;100702.13;5046071;28;45373;-66
2022/04/06 00:31:44;;;;;;;;;1.00;1.00;;;;;13.60;52.08;100691.38;5059226;28;45266;-66
2022/04/06 00:34:09;;;;;;;;;1.00;1.00;;;;;13.61;52.38;100703.88;5058780;28;45305;-66
2022/04/06 00:36:34;;;;;;;;;3.75;2.50;;;;;13.56;52.02;100690.66;5060521;28;45294;-66
2022/04/06 00:39:00;;;;;;;;;1.00;1.00;;;;;13.52;52.16;100689.06;5061014;28;45331;-66
2022/04/06 00:41:25;;;;;;;;;1.00;1.00;;;;;13.51;51.94;100682.84;5060319;28;45455;-67
2022/04/06 00:44:17;;;;;;;;;0.50;0.00;;;;;13.53;52.09;100678.28;5071567;28;47463;-66
2022/04/06 00:46:45;;;;;;;;;2.75;0.00;;;;;13.54;52.24;100679.16;5060383;28;45231;-66
2022/04/06 00:49:14;;;;;;;;;3.00;1.00;;;;;13.52;52.19;100673.84;5051219;28;45418;-66
2022/04/06 00:51:42;;;;;;;;;3.00;1.00;;;;;13.53;52.09;100669.34;5056576;28;45418;-66
2022/04/06 00:54:08;;;;;;;;;1.00;1.00;;;;;13.57;52.05;100670.97;5056352;28;45399;-66
2022/04/06 00:56:34;;;;;;;;;0.00;0.00;;;;;13.54;52.43;100660.38;5050153;28;45451;-66
2022/04/06 00:59:00;;;;;;;;;1.25;1.00;;;;;13.54;52.51;100663.06;5060335;28;45381;-66
2022/04/06 01:01:25;;;;;;;;;4.00;1.00;;;;;13.51;52.37;100657.81;5060166;28;45394;-66
2022/04/06 01:03:50;;;;;;;;;1.25;0.00;;;;;13.54;52.57;100668.41;5058044;28;47282;-66
2022/04/06 01:06:15;;;;;;;;;1.50;1.50;;;;;13.48;52.59;100653.50;5057036;28;45302;-66
2022/04/06 01:08:41;;;;;;;;;1.50;1.50;;;;;13.49;52.89;100660.56;5060331;28;45637;-66
2022/04/06 01:11:06;;;;;;;;;1.25;1.25;;;;;13.45;52.67;100658.13;5059978;28;45553;-66
2022/04/06 01:13:32;;;;;;;;;1.00;1.00;;;;;13.46;52.42;100657.16;5060165;28;45404;-66
2022/04/06 01:15:57;;;;;;;;;2.00;1.75;;;;;13.43;52.63;100655.50;5058861;28;45309;-67
2022/04/06 01:18:23;;;;;;;;;1.25;1.00;;;;;13.44;52.90;100646.50;5060359;28;45338;-66
2022/04/06 01:20:48;;;;;;;;;0.25;0.25;;;;;13.40;52.92;100639.56;5054722;28;45675;-66
2022/04/06 01:23:13;;;;;;;;;2.00;2.00;;;;;13.39;52.95;100645.00;5068282;28;48232;-66
2022/04/06 01:25:40;;;;;;;;;2.50;2.00;;;;;13.38;52.75;100632.50;5065764;28;45247;-66
2022/04/06 01:28:07;;;;;;;;;2.75;1.00;;;;;13.43;52.88;100630.50;5060055;28;45511;-66
2022/04/06 01:30:32;;;;;;;;;1.00;1.00;;;;;13.42;53.03;100636.81;5059736;28;45208;-66
2022/04/06 01:32:58;;;;;;;;;2.75;0.75;;;;;13.41;52.77;100635.06;5058355;28;46054;-66
2022/04/06 01:35:24;;;;;;;;;1.00;1.00;;;;;13.39;53.10;100647.69;5059140;28;45237;-66
2022/04/06 01:37:49;;;;;;;;;0.00;0.00;;;;;13.37;53.11;100653.09;5059839;28;45392;-66
2022/04/06 01:40:14;;;;;;;;;2.25;1.00;;;;;13.32;53.01;100631.00;5058192;28;45585;-66
2022/04/06 01:42:40;;;;;;;;;1.00;1.00;;;;;13.32;53.24;100639.91;5059848;28;46103;-66
2022/04/06 01:45:06;;;;;;;;;1.00;1.00;;;;;13.31;52.89;100637.25;5058633;28;45311;-66
2022/04/06 01:47:31;;;;;;;;;0.25;0.25;;;;;13.31;53.19;100632.78;5059888;28;45408;-67
2022/04/06 01:52:41;;;;;;;;;3.25;1.25;;;;;13.25;53.00;100632.19;5059472;28;45814;-66
2022/04/06 01:55:09;;;;;;;;;0.00;0.00;;;;;13.24;53.09;100633.97;5048333;28;45499;-66
2022/04/06 01:57:36;;;;;;;;;1.75;1.00;;;;;13.20;53.37;100621.69;5059627;28;45219;-66
2022/04/06 02:00:06;;;;;;;;;1.25;0.75;;;;;13.21;53.04;100626.06;5071567;28;45350;-66
2022/04/06 02:02:31;;;;;;;;;2.00;1.00;;;;;13.18;53.09;100623.56;5050600;28;47701;-66
2022/04/06 02:05:00;;;;;;;;;1.00;1.00;;;;;13.15;53.17;100626.38;5058313;28;45393;-66
2022/04/06 02:07:25;;;;;;;;;1.00;1.00;;;;;13.16;53.16;100622.72;5059044;28;45202;-66
2022/04/06 02:09:51;;;;;;;;;0.75;0.25;;;;;13.14;53.09;100625.47;5059344;28;45252;-66
2022/04/06 02:12:16;;;;;;;;;1.25;0.75;;;;;13.16;53.10;100622.72;5059223;28;46085;-66
2022/04/06 02:14:42;;;;;;;;;1.00;1.00;;;;;13.13;53.08;100625.53;5058198;28;46902;-66
2022/04/06 02:17:08;;;;;;;;;1.25;1.25;;;;;13.11;53.39;100627.44;5059520;28;45248;-66
2022/04/06 02:19:36;;;;;;;;;1.00;1.00;;;;;13.12;53.16;100629.19;5057619;28;46108;-66
2022/04/06 02:22:02;;;;;;;;;1.00;0.00;;;;;13.10;53.12;100623.91;5074356;27;47172;-66
2022/04/06 02:24:27;;;;;;;;;2.00;1.00;;;;;13.06;53.45;100613.38;5053434;28;45478;-66
2022/04/06 02:26:53;;;;;;;;;2.25;1.00;;;;;13.05;53.30;100611.66;5056241;28;45411;-66
2022/04/06 02:29:18;;;;;;;;;1.00;1.00;;;;;13.00;53.00;100614.53;5067818;28;45591;-66
2022/04/06 02:31:43;;;;;;;;;1.00;0.00;;;;;13.02;53.18;100609.09;5058456;28;45401;-66
2022/04/06 02:34:09;;;;;;;;;1.50;0.75;;;;;13.00;53.46;100608.28;5057471;28;45394;-66
2022/04/06 02:36:34;;;;;;;;;1.00;1.00;;;;;12.98;53.15;100608.38;5058893;28;45188;-66
2022/04/06 02:39:00;;;;;;;;;1.00;1.00;;;;;12.97;53.13;100607.47;5059298;28;45279;-66
2022/04/06 02:41:26;;;;;;;;;2.00;0.00;;;;;12.92;53.47;100587.22;5058822;28;46091;-66
2022/04/06 02:43:52;;;;;;;;;0.25;0.25;;;;;12.89;53.09;100593.56;5059640;28;45758;-66
2022/04/06 02:46:17;;;;;;;;;0.00;0.00;;;;;12.95;53.13;100595.13;5050722;28;45533;-66
2022/04/06 02:48:43;;;;;;;;;1.00;0.00;;;;;12.95;53.20;100595.13;5056962;28;45286;-66
2022/04/06 02:51:09;;;;;;;;;1.00;1.00;;;;;12.94;53.19;100593.34;5054303;28;46452;-66
2022/04/06 02:53:34;;;;;;;;;0.50;0.00;;;;;12.94;53.39;100594.22;5061314;28;45468;-66
2022/04/06 02:56:00;;;;;;;;;0.50;0.50;;;;;12.96;53.37;100594.16;5048165;28;45391;-66
2022/04/06 02:58:25;;;;;;;;;0.00;0.00;;;;;12.95;53.14;100595.97;5059197;28;45418;-66
2022/04/06 03:00:50;;;;;;;;;1.25;0.00;;;;;12.93;53.39;100591.59;5073695;28;48133;-66
2022/04/06 03:03:16;;;;;;;;;0.00;0.00;;;;;12.95;53.31;100584.38;5057609;28;45280;-66
2022/04/06 03:05:41;;;;;;;;;0.00;0.00;;;;;12.95;53.29;100587.94;5068782;28;45311;-66
2022/04/06 03:08:07;;;;;;;;;0.25;0.25;;;;;12.95;53.18;100585.25;5060481;28;45487;-66
2022/04/06 03:10:32;;;;;;;;;0.50;0.00;;;;;12.91;53.41;100567.59;5059861;28;46183;-66
2022/04/06 03:12:58;;;;;;;;;1.00;0.00;;;;;12.94;53.40;100579.97;5060470;28;45410;-66
2022/04/06 03:15:23;;;;;;;;;1.00;1.00;;;;;12.93;53.57;100581.78;5061871;28;45357;-66
2022/04/06 03:17:48;;;;;;;;;0.00;0.00;;;;;12.91;53.26;100575.63;5057256;28;45853;-66
2022/04/06 03:20:14;;;;;;;;;0.25;0.25;;;;;12.94;53.48;100572.78;5053108;28;45418;-66
2022/04/06 03:22:40;;;;;;;;;0.00;0.00;;;;;12.95;53.36;100568.31;5059621;28;45421;-65
2022/04/06 03:25:06;;;;;;;;;0.00;0.00;;;;;12.92;53.41;100555.91;5061748;28;45368;-65
2022/04/06 03:27:33;;;;;;;;;0.00;0.00;;;;;12.91;53.34;100555.97;5061745;28;45335;-65
2022/04/06 03:29:59;;;;;;;;;0.00;0.00;;;;;12.89;53.21;100552.50;5061365;28;45344;-65
2022/04/06 03:32:24;;;;;;;;;0.00;0.00;;;;;12.91;53.38;100558.66;5059828;28;45573;-66
2022/04/06 03:34:49;;;;;;;;;0.00;0.00;;;;;12.90;53.38;100552.44;5061727;28;45296;-66
2022/04/06 03:37:15;;;;;;;;;1.00;1.00;;;;;12.87;53.45;100541.84;5061324;28;45243;-66
2022/04/06 03:39:40;;;;;;;;;0.00;0.00;;;;;12.88;53.55;100546.28;5061429;28;45459;-66
2022/04/06 03:42:06;;;;;;;;;0.00;0.00;;;;;12.90;53.27;100554.25;5060671;28;45311;-66
2022/04/06 03:44:31;;;;;;;;;0.75;0.00;;;;;12.89;53.25;100547.16;5061352;28;45281;-66
2022/04/06 03:46:56;;;;;;;;;0.00;0.00;;;;;12.84;53.25;100543.81;5061277;28;45392;-66
2022/04/06 03:49:22;;;;;;;;;0.00;0.00;;;;;12.85;53.55;100537.53;5049821;28;46272;-66
2022/04/06 03:51:47;;;;;;;;;0.00;0.00;;;;;12.87;53.85;100541.84;5050284;28;45423;-66
2022/04/06 03:54:13;;;;;;;;;0.50;0.00;;;;;12.86;53.72;100539.25;5047709;28;46021;-66
2022/04/06 03:56:38;;;;;;;;;0.00;0.00;;;;;12.85;53.46;100529.50;5060906;28;45441;-66
2022/04/06 03:59:04;;;;;;;;;0.00;0.00;;;;;12.87;53.23;100533.81;5060908;28;45956;-66
2022/04/06 04:01:30;;;;;;;;;0.00;0.00;;;;;12.86;53.32;100537.44;5060073;28;45342;-66
2022/04/06 04:03:56;;;;;;;;;0.00;0.00;;;;;12.85;53.41;100527.69;5059095;28;45542;-66
2022/04/06 04:06:21;;;;;;;;;0.00;0.00;;;;;12.85;53.61;100530.34;5059991;28;45406;-66
2022/04/06 04:08:46;;;;;;;;;0.00;0.00;;;;;12.86;53.27;100532.06;5061084;28;46089;-66
2022/04/06 04:11:12;;;;;;;;;0.00;0.00;;;;;12.83;53.47;100526.88;5060457;28;45291;-66
2022/04/06 04:13:37;;;;;;;;;0.75;0.75;;;;;12.85;53.62;100533.03;5061063;28;45300;-66
2022/04/06 04:16:03;;;;;;;;;1.00;0.00;;;;;12.85;53.66;100532.16;5060865;28;45452;-66
2022/04/06 04:18:29;;;;;;;;;1.00;1.00;;;;;12.82;53.50;100526.94;5060824;28;47511;-66
2022/04/06 04:21:32;;;;;;;;;0.75;0.75;;;;;12.82;53.75;100529.63;5059681;28;45609;-66
2022/04/06 04:23:39;;;;;;;;;1.00;1.00;;;;;12.74;53.84;100521.91;5060696;28;45259;-67
2022/04/06 04:26:05;;;;;;;;;0.50;0.00;;;;;12.80;53.83;100532.38;5060778;28;45307;-66
2022/04/06 04:28:30;;;;;;;;;1.00;0.00;;;;;12.76;53.92;100537.00;5060469;28;45256;-66
2022/04/06 04:30:56;;;;;;;;;0.00;0.00;;;;;12.78;53.69;100540.47;5060210;28;45354;-66
2022/04/06 04:33:21;;;;;;;;;0.75;0.75;;;;;12.74;53.98;100524.59;5065056;28;45347;-66
2022/04/06 04:35:47;;;;;;;;;1.00;1.00;;;;;12.76;53.98;100522.72;5060889;28;45256;-66
2022/04/06 04:38:13;;;;;;;;;0.75;0.00;;;;;12.74;54.04;100514.75;5060219;28;46321;-66
2022/04/06 04:40:38;;;;;;;;;1.00;0.00;;;;;12.69;53.90;100514.09;5059979;28;45314;-66
2022/04/06 04:43:03;;;;;;;;;0.50;0.25;;;;;12.69;54.25;100514.09;5060728;28;45309;-66
2022/04/06 04:45:29;;;;;;;;;1.00;1.00;;;;;12.69;54.17;100513.22;5060408;28;45208;-66
2022/04/06 04:47:54;;;;;;;;;2.00;1.00;;;;;12.67;54.34;100502.59;5060374;28;46150;-66
2022/04/06 04:50:20;;;;;;;;;1.00;1.00;;;;;12.68;54.39;100507.00;5047003;28;45225;-66
2022/04/06 04:52:45;;;;;;;;;2.00;1.00;;;;;12.70;54.44;100504.28;5059657;28;45362;-66
2022/04/06 04:55:11;;;;;;;;;1.25;1.25;;;;;12.71;54.17;100506.00;5056112;28;45312;-66
2022/04/06 04:57:36;;;;;;;;;1.75;1.75;;;;;12.67;54.27;100488.34;5075938;28;47079;-66
2022/04/06 05:00:04;;;;;;;;;1.00;1.00;;;;;12.67;54.65;100486.50;5059892;28;45329;-66
2022/04/06 05:02:29;;;;;;;;;1.25;1.25;;;;;12.67;54.60;100489.19;5055390;28;45314;-66
2022/04/06 05:04:54;;;;;;;;;1.00;1.00;;;;;12.69;54.41;100498.03;5058876;28;45520;-66
2022/04/06 05:07:20;;;;;;;;;2.00;0.50;;;;;12.70;54.42;100499.78;5059648;28;46491;-66
2022/04/06 05:09:45;;;;;;;;;4.25;3.25;;;;;12.70;54.20;100497.09;5059938;28;45242;-66
2022/04/06 05:12:11;;;;;;;;;3.00;2.00;;;;;12.68;54.33;100479.34;5054708;28;45473;-66
2022/04/06 05:14:36;;;;;;;;;3.00;2.00;;;;;12.66;54.32;100487.44;5059194;28;45357;-66
2022/04/06 05:17:01;;;;;;;;;1.75;1.75;;;;;12.68;54.32;100493.63;5059862;28;45458;-66
2022/04/06 05:19:27;;;;;;;;;2.00;2.00;;;;;12.66;54.49;100491.94;5074892;28;45460;-66
2022/04/06 05:21:52;;;;;;;;;3.00;2.00;;;;;12.64;54.54;100483.13;5054014;28;45303;-66
2022/04/06 05:24:17;;;;;;;;;3.00;1.25;;;;;12.64;54.42;100480.44;5059708;28;46796;-66
2022/04/06 05:26:43;;;;;;;;;2.00;2.00;;;;;12.66;54.39;100474.06;5059817;28;45394;-66
2022/04/06 05:29:08;;;;;;;;;3.00;2.00;;;;;12.66;54.35;100481.22;5059659;28;45334;-66
2022/04/06 05:31:33;;;;;;;;;1.75;1.75;;;;;12.63;54.45;100482.25;5057897;28;45287;-66
2022/04/06 05:33:59;;;;;;;;;4.50;3.00;;;;;12.66;54.60;100492.78;5058979;28;45373;-66
2022/04/06 05:36:25;;;;;;;;;1.50;1.50;;;;;12.63;54.65;100487.59;5059480;28;46251;-66
2022/04/06 05:38:50;;;;;;;;;2.75;2.00;;;;;12.66;54.42;100494.63;5058397;28;45343;-66
2022/04/06 05:41:16;;;;;;;;;2.25;1.50;;;;;12.66;54.71;100499.97;5052527;28;45398;-66
2022/04/06 05:43:41;;;;;;;;;2.25;2.00;;;;;12.63;54.68;100503.66;5059039;28;45397;-66
2022/04/06 05:46:06;;;;;;;;;2.00;2.00;;;;;12.62;54.67;100493.03;5053306;28;46178;-66
2022/04/06 05:48:32;;;;;;;;;2.00;2.00;;;;;12.62;54.68;100495.72;5055573;28;45322;-66
2022/04/06 05:50:57;;;;;;;;;3.00;3.00;;;;;12.63;54.90;100495.63;5048687;28;45267;-66
2022/04/06 05:53:22;;;;;;;;;3.75;3.00;;;;;12.62;54.85;100501.91;5059367;28;45309;-66
2022/04/06 05:55:48;;;;;;;;;3.00;2.00;;;;;12.60;54.67;100493.94;5059293;28;46434;-66
2022/04/06 05:58:14;;;;;;;;;4.75;2.50;;;;;12.59;54.65;100491.34;5055764;28;45803;-66
2022/04/06 06:00:40;;;;;;;;;4.00;3.00;;;;;12.61;54.84;100494.81;5057182;28;45501;-66
2022/04/06 06:03:05;;;;;;;;;3.50;2.00;;;;;12.57;54.97;100491.41;5055115;28;45595;-66
2022/04/06 06:05:31;;;;;;;;;2.75;2.75;;;;;12.56;54.83;100492.38;5058218;28;46985;-65
2022/04/06 06:07:56;;;;;;;;;2.00;2.00;;;;;12.56;54.90;100487.00;5058843;28;45366;-75
2022/04/06 06:10:21;;;;;;;;;3.00;3.00;;;;;12.55;54.93;100482.59;5045194;28;45377;-73
2022/04/06 06:12:47;;;;;;;;;2.50;1.75;;;;;12.52;54.78;100481.84;5048211;28;45306;-72
2022/04/06 06:15:12;;;;;;;;;2.00;1.00;;;;;12.56;55.01;100486.13;5050640;28;45419;-72
2022/04/06 06:17:39;;;;;;;;;1.75;1.75;;;;;12.58;54.94;100485.13;5059252;28;45297;-72
2022/04/06 06:20:07;;;;;;;;;2.50;1.00;;;;;12.55;55.14;100487.06;5059195;28;45227;-72
2022/04/06 06:22:33;;;;;;;;;2.00;2.00;;;;;12.54;54.84;100494.22;5062607;28;45584;-72
2022/04/06 06:24:59;;;;;;;;;2.00;0.75;;;;;12.55;55.19;100482.59;5050771;28;47656;-72
2022/04/06 06:27:24;;;;;;;;;4.50;3.00;;;;;12.55;55.12;100476.38;5050525;28;45504;-72
2022/04/06 06:29:50;;;;;;;;;3.50;2.00;;;;;12.56;55.11;100481.66;5062654;28;45309;-72
2022/04/06 06:32:16;;;;;;;;;4.00;3.00;;;;;12.55;55.30;100479.91;5057599;28;45513;-73
2022/04/06 06:34:41;;;;;;;;;3.00;1.75;;;;;12.54;54.90;100472.81;5062763;28;46690;-71
2022/04/06 06:37:07;;;;;;;;;2.00;2.00;;;;;12.58;55.38;100479.78;5058869;28;45325;-71
2022/04/06 06:39:32;;;;;;;;;2.00;2.00;;;;;12.55;55.35;100474.56;5042664;28;45442;-71
2022/04/06 06:41:57;;;;;;;;;1.25;1.00;;;;;12.55;55.34;100476.38;5061136;28;45644;-71
2022/04/06 06:44:23;;;;;;;;;2.25;2.25;;;;;12.57;55.26;100482.50;5062140;28;46112;-72
2022/04/06 06:46:48;;;;;;;;;1.25;1.00;;;;;12.59;55.40;100477.97;5062296;28;45377;-71
2022/04/06 06:49:15;;;;;;;;;4.50;3.00;;;;;12.57;55.52;100471.81;5062590;28;45262;-72
2022/04/06 06:51:41;;;;;;;;;2.25;2.25;;;;;12.60;55.25;100471.69;5058361;28;46097;-72
2022/04/06 06:54:07;;;;;;;;;1.75;1.75;;;;;12.60;55.44;100483.25;5054391;28;46272;-72
2022/04/06 06:56:33;;;;;;;;;1.75;1.75;;;;;12.62;55.44;100483.19;5046371;28;45315;-71
2022/04/06 06:58:58;;;;;;;;;2.00;1.00;;;;;12.63;55.56;100470.66;5053730;28;45347;-72
2022/04/06 07:01:24;;;;;;;;;3.00;3.00;;;;;12.64;55.21;100478.63;5049906;28;45600;-69
2022/04/06 07:03:49;;;;;;;;;1.50;1.00;;;;;12.63;55.40;100467.97;5052748;28;47259;-66
2022/04/06 07:06:15;;;;;;;;;2.00;2.00;;;;;12.65;55.50;100472.34;5058242;28;45347;-66
2022/04/06 07:08:41;;;;;;;;;4.00;2.00;;;;;12.67;55.21;100464.22;5063208;28;45472;-66
2022/04/06 07:11:06;;;;;;;;;2.00;2.00;;;;;12.63;55.38;100459.94;5058731;28;45616;-66
2022/04/06 07:13:32;;;;;;;;;2.00;2.00;;;;;12.62;55.49;100460.91;5071808;28;46087;-66
2022/04/06 07:15:58;;;;;;;;;2.50;1.00;;;;;12.63;55.57;100454.59;5060549;28;45678;-66
2022/04/06 07:18:23;;;;;;;;;2.75;2.75;;;;;12.64;55.56;100453.66;5059290;28;45354;-66
2022/04/06 07:20:49;;;;;;;;;2.00;2.00;;;;;12.66;55.46;100460.66;5059076;28;45576;-66
2022/04/06 07:23:14;;;;;;;;;1.75;1.25;;;;;12.65;55.57;100453.59;5060931;28;46206;-66
2022/04/06 07:25:40;;;;;;;;;2.00;2.00;;;;;12.67;55.53;100459.75;5047864;28;45383;-65
2022/04/06 07:28:06;;;;;;;;;4.00;3.00;;;;;12.65;55.55;100448.22;5060990;28;45330;-66
2022/04/06 07:30:32;;;;;;;;;4.00;3.50;;;;;12.68;55.57;100453.44;5059424;28;45322;-68
2022/04/06 07:32:58;;;;;;;;;3.00;2.00;;;;;12.67;55.34;100459.75;5057434;28;47008;-71
2022/04/06 07:35:24;;;;;;;;;2.50;2.00;;;;;12.71;55.32;100455.09;5050032;28;45562;-71
2022/04/06 07:37:51;;;;;;;;;4.00;3.25;;;;;12.73;55.42;100448.75;5060045;28;45391;-71
2022/04/06 07:40:19;;;;;;;;;3.00;2.00;;;;;12.75;55.49;100449.53;5059890;28;45483;-71
2022/04/06 07:42:46;;;;;;;;;2.00;2.00;;;;;12.76;55.58;100442.38;5054142;28;46214;-71
2022/04/06 07:45:22;;;;;;;;;2.75;2.00;;;;;12.79;55.20;100453.81;5059284;28;45424;-71
2022/04/06 07:47:50;;;;;;;;;2.00;2.00;;;;;12.78;55.32;100449.41;5060439;28;45371;-71
2022/04/06 07:50:17;;;;;;;;;6.00;3.00;;;;;12.84;55.30;100453.59;5059521;28;45444;-71
2022/04/06 07:52:42;;;;;;;;;3.00;2.00;;;;;12.85;55.03;100452.66;5048842;28;45548;-71
2022/04/06 07:55:09;;;;;;;;;2.75;2.00;;;;;12.90;55.26;100453.31;5058557;28;45327;-71
2022/04/06 07:57:36;;;;;;;;;2.00;2.00;;;;;12.88;55.14;100446.28;5049834;28;45358;-71
2022/04/06 08:00:08;;;;;;;;;3.75;3.75;;;;;12.88;55.26;100441.81;5058404;28;45547;-71
2022/04/06 08:02:33;;;;;;;;;3.00;3.00;;;;;12.88;54.97;100439.13;5058838;28;46423;-72
2022/04/06 08:04:58;;;;;;;;;1.75;1.00;;;;;12.92;55.20;100430.00;5058866;28;45920;-71
2022/04/06 08:07:24;;;;;;;;;3.25;3.00;;;;;12.95;55.05;100431.69;5059674;28;45407;-71
2022/04/06 08:09:49;;;;;;;;;3.75;3.75;;;;;12.97;55.32;100421.75;5057842;28;45483;-71
2022/04/06 08:12:15;;;;;;;;;4.50;3.00;;;;;12.91;55.13;100417.56;5053430;28;46309;-70
2022/04/06 08:14:40;;;;;;;;;3.00;2.00;;;;;12.98;55.16;100429.72;5056209;28;45343;-69
2022/04/06 08:17:06;;;;;;;;;3.25;3.00;;;;;12.97;55.13;100421.75;5059697;28;45748;-67
2022/04/06 08:19:31;;;;;;;;;2.25;1.50;;;;;13.00;55.11;100426.09;5059663;28;45415;-67
2022/04/06 08:21:57;;;;;;;;;8.50;4.75;;;;;12.99;54.93;100409.16;5059218;28;45435;-66
2022/04/06 08:24:22;;;;;;;;;2.00;2.00;;;;;13.04;54.91;100422.34;5051216;28;45422;-66
2022/04/06 08:26:47;;;;;;;;;1.00;1.00;;;;;13.07;54.79;100422.19;5057696;28;45548;-66
2022/04/06 08:29:13;;;;;;;;;1.50;1.00;;;;;13.05;54.58;100416.91;5059727;28;45283;-66
2022/04/06 08:31:38;;;;;;;;;2.25;2.25;;;;;13.08;55.02;100415.88;5058465;28;46117;-65
2022/04/06 08:34:05;;;;;;;;;3.00;2.00;;;;;13.09;54.92;100418.47;5057010;28;45453;-65
2022/04/06 08:36:34;;;;;;;;;3.00;1.50;;;;;13.11;54.68;100419.28;5059334;28;45935;-65
2022/04/06 08:39:01;;;;;;;;;4.75;2.50;;;;;13.11;54.95;100413.03;5059923;28;45324;-65
2022/04/06 08:41:28;;;;;;;;;2.25;2.25;;;;;13.15;54.72;100414.66;5057902;28;46238;-65
2022/04/06 08:43:57;;;;;;;;;1.75;1.75;;;;;13.10;54.68;100404.16;5048444;28;45408;-66
2022/04/06 08:46:23;;;;;;;;;2.75;2.00;;;;;13.11;54.86;100411.25;5052218;28;47095;-66
2022/04/06 08:48:49;;;;;;;;;2.75;2.00;;;;;13.11;54.81;100416.63;5045693;28;45423;-66
2022/04/06 08:51:16;;;;;;;;;4.25;4.00;;;;;13.09;55.00;100405.06;5048590;28;47120;-66
2022/04/06 08:53:43;;;;;;;;;4.50;4.50;;;;;13.16;55.14;100411.91;5050525;28;45788;-66
2022/04/06 08:56:12;;;;;;;;;3.00;2.00;;;;;13.18;55.03;100402.91;5057279;28;45460;-66
2022/04/06 08:58:38;;;;;;;;;1.75;1.75;;;;;13.19;54.80;100401.97;5048739;28;45455;-66
2022/04/06 09:01:03;;;;;;;;;2.75;1.50;;;;;13.19;54.78;100402.81;5055032;28;46616;-66
2022/04/06 09:03:29;;;;;;;;;4.50;3.00;;;;;13.21;54.83;100394.72;5058415;28;45425;-66
2022/04/06 09:06:01;;;;;;;;;2.00;2.00;;;;;13.22;54.93;100400.00;5054134;28;45477;-66
2022/04/06 09:08:47;;;;;;;;;4.00;4.00;;;;;13.22;54.93;100400.00;5054567;28;45572;-68
2022/04/06 09:11:18;;;;;;;;;4.00;2.00;;;;;13.24;55.05;100389.22;5058981;28;45594;-65
2022/04/06 09:13:46;;;;;;;;;3.50;3.25;;;;;13.27;55.17;100394.41;5059240;28;45513;-65
2022/04/06 09:16:16;;;;;;;;;2.50;2.50;;;;;13.24;54.98;100390.06;5056775;28;45513;-67
2022/04/06 09:18:44;;;;;;;;;3.50;2.25;;;;;13.29;55.00;100398.75;5059218;28;45262;-67
2022/04/06 09:21:12;;;;;;;;;4.50;3.00;;;;;13.30;54.78;100400.50;5053306;28;45379;-67
2022/04/06 09:23:38;;;;;;;;;7.00;5.00;;;;;13.29;54.93;100401.44;5059398;28;45351;-66
2022/04/06 09:26:06;;;;;;;;;6.25;3.75;;;;;13.30;54.85;100402.31;5047471;28;45508;-67
2022/04/06 09:28:32;;;;;;;;;2.00;2.00;;;;;13.29;54.79;100384.50;5053519;28;45437;-67
2022/04/06 09:30:58;;;;;;;;;3.25;2.25;;;;;13.32;54.84;100384.38;5050661;28;46166;-67
2022/04/06 09:33:28;;;;;;;;;5.00;3.00;;;;;13.32;55.00;100384.38;5048156;28;45781;-67
2022/04/06 09:35:55;;;;;;;;;3.00;2.00;;;;;13.37;55.05;100390.38;5058791;28;45484;-67
2022/04/06 09:38:22;;;;;;;;;2.00;1.75;;;;;13.42;54.56;100395.50;5057657;28;46126;-67
2022/04/06 09:40:50;;;;;;;;;3.50;2.00;;;;;13.41;55.13;100399.13;5056783;28;47389;-67
2022/04/06 09:43:30;;;;;;;;;3.00;3.00;;;;;13.45;54.84;100387.31;5054046;28;45856;-67
2022/04/06 09:49:00;;;;;;;;;2.25;2.00;;;;;13.42;54.57;100396.38;5048551;28;45361;-66
2022/04/06 09:51:25;;;;;;;;;3.50;2.75;;;;;13.42;54.46;100392.84;5051941;28;45732;-67
2022/04/06 09:53:54;;;;;;;;;3.00;2.50;;;;;13.48;54.46;100395.19;5059274;28;45873;-67
2022/04/06 09:56:21;;;;;;;;;2.00;2.00;;;;;13.48;54.35;100381.78;5058975;28;45445;-66
2022/04/06 09:58:47;;;;;;;;;3.00;1.50;;;;;13.49;54.51;100383.53;5062941;28;45351;-66
2022/04/06 10:01:16;;;;;;;;;2.00;2.00;;;;;13.55;54.36;100390.38;5060067;28;46153;-66
2022/04/06 10:03:50;;;;;;;;;4.75;3.75;;;;;13.55;54.16;100393.94;5062345;28;45491;-68
2022/04/06 10:06:16;;;;;;;;;5.25;2.00;;;;;13.55;54.54;100398.44;5049063;28;45358;-68
2022/04/06 10:08:43;;;;;;;;;5.00;4.50;;;;;13.58;54.58;100395.59;5060014;28;45500;-67
2022/04/06 10:11:10;;;;;;;;;1.25;1.25;;;;;13.62;54.70;100394.50;5061315;28;46182;-67
2022/04/06 10:13:36;;;;;;;;;4.25;4.25;;;;;13.60;54.50;100386.53;5062006;28;45401;-67
2022/04/06 10:16:01;;;;;;;;;4.00;3.00;;;;;13.61;54.61;100380.22;5055093;28;45505;-67
2022/04/06 10:18:33;;;;;;;;;3.25;3.00;;;;;13.64;54.42;100372.03;5057697;28;45512;-67
2022/04/06 10:21:15;;;;;;;;;3.25;3.00;;;;;13.65;54.27;100368.41;5062014;28;45371;-67
2022/04/06 10:24:05;;;;;;;;;5.00;3.00;;;;;13.67;54.33;100360.28;5052370;28;45643;-67
2022/04/06 10:27:00;;;;;;;;;5.00;4.00;;;;;13.66;54.34;100351.34;5061770;28;45471;-67
2022/04/06 10:29:25;;;;;;;;;2.00;2.00;;;;;13.70;54.08;100352.06;5061561;28;45438;-67
2022/04/06 10:31:50;;;;;;;;;2.25;2.25;;;;;13.73;54.19;100359.09;5060005;28;45391;-67
2022/04/06 10:34:22;;;;;;;;;2.00;2.00;;;;;13.75;54.46;100354.50;5060935;28;45403;-67
2022/04/06 10:37:16;;;;;;;;;3.00;3.00;;;;;13.76;54.19;100349.06;5061550;28;45169;-67
2022/04/06 10:39:54;;;;;;;;;3.50;3.00;;;;;13.78;54.19;100357.03;5048995;28;45394;-67
2022/04/06 10:42:32;;;;;;;;;6.00;3.00;;;;;13.77;54.06;100347.25;5052297;28;46069;-67
2022/04/06 10:44:59;;;;;;;;;3.00;3.00;;;;;13.75;53.97;100339.28;5045327;28;45465;-67
2022/04/06 10:47:25;;;;;;;;;5.50;4.50;;;;;13.78;54.11;100339.13;5061734;28;45308;-67
2022/04/06 10:50:08;;;;;;;;;4.00;4.00;;;;;13.80;54.23;100339.03;5047821;28;45307;-67
2022/04/06 10:52:34;;;;;;;;;3.50;3.00;;;;;13.81;53.98;100335.41;5072713;28;48129;-67
2022/04/06 10:55:08;;;;;;;;;5.00;3.50;;;;;13.81;54.08;100327.38;5053383;28;45345;-67
2022/04/06 10:57:55;;;;;;;;;3.50;3.50;;;;;13.83;53.94;100326.34;5061817;28;45240;-67
2022/04/06 11:00:21;;;;;;;;;2.50;2.50;;;;;13.81;53.93;100319.31;5054109;28;45504;-67
2022/04/06 11:02:50;;;;;;;;;3.75;3.00;;;;;13.77;54.01;100305.19;5052575;28;48059;-67
2022/04/06 11:05:40;;;;;;;;;5.25;5.25;;;;;13.80;54.30;100304.16;5055849;28;46491;-68
2022/04/06 11:10:50;;;;;;;;;3.75;3.75;;;;;13.78;54.28;100298.00;5061532;28;45275;-67
2022/04/06 11:13:24;;;;;;;;;6.25;3.75;;;;;13.79;54.24;100299.75;5060844;28;46020;-67
2022/04/06 11:15:51;;;;;;;;;4.00;4.00;;;;;13.77;54.17;100298.97;5060207;28;45269;-66
2022/04/06 11:18:46;;;;;;;;;5.00;3.00;;;;;13.81;54.40;100289.81;5059719;28;45255;-67
2022/04/06 11:21:14;;;;;;;;;3.25;3.25;;;;;13.82;54.31;100283.50;5053982;28;45413;-67
2022/04/06 11:23:39;;;;;;;;;5.00;3.00;;;;;13.84;54.27;100279.78;5068568;28;45342;-67
2022/04/06 11:26:05;;;;;;;;;6.00;3.50;;;;;13.82;54.20;100279.00;5064110;28;45456;-67
2022/04/06 11:28:31;;;;;;;;;3.50;2.75;;;;;13.88;54.90;100273.31;5052983;28;45556;-65
2022/04/06 11:31:01;;;;;;;;;4.00;4.00;;;;;13.88;54.61;100278.69;5052895;27;46020;-66